sensor_id;sensor_type;location;lat;lon;timestamp;temperature;humidity
21244;DHT22;10780;50.942;4.028;2022-11-15T00:00:50;11.80;99.90
21244;DHT22;10780;50.942;4.028;2022-11-15T00:03:26;11.60;99.90
21244;DHT22;10780;50.942;4.028;2022-11-15T00:05:52;11.80;99.90
21244;DHT22;10780;50.942;4.028;2022-11-15T00:08:18;11.90;99.90
21244;DHT22;10780;50.942;4.028;2022-11-15T00:10:56;11.80;99.90
21244;DHT22;10780;50.942;4.028;2022-11-15T00:13:22;11.80;99.90
21244;DHT22;10780;50.942;4.028;2022-11-15T00:15:48;11.80;99.90
21244;DHT22;10780;50.942;4.028;2022-11-15T00:18:14;11.90;99.90
21244;DHT22;10780;50.942;4.028;2022-11-15T00:20:40;12.00;99.90
21244;DHT22;10780;50.942;4.028;2022-11-15T00:23:06;12.10;99.90
21244;DHT22;10780;50.942;4.028;2022-11-15T00:25:32;12.00;99.90
21244;DHT22;10780;50.942;4.028;2022-11-15T00:27:59;12.10;99.90
21244;DHT22;10780;50.942;4.028;2022-11-15T00:30:25;12.10;99.90
21244;DHT22;10780;50.942;4.028;2022-11-15T00:32:51;12.20;99.90
21244;DHT22;10780;50.942;4.028;2022-11-15T00:35:17;12.20;99.90
21244;DHT22;10780;50.942;4.028;2022-11-15T00:37:43;12.20;99.90
21244;DHT22;10780;50.942;4.028;2022-11-15T00:40:09;12.20;99.90
21244;DHT22;10780;50.942;4.028;2022-11-15T00:42:35;12.10;99.90
21244;DHT22;10780;50.942;4.028;2022-11-15T00:45:01;12.00;99.90
21244;DHT22;10780;50.942;4.028;2022-11-15T00:47:26;11.90;99.90
21244;DHT22;10780;50.942;4.028;2022-11-15T00:49:52;12.00;99.90
21244;DHT22;10780;50.942;4.028;2022-11-15T00:52:17;12.00;99.90
21244;DHT22;10780;50.942;4.028;2022-11-15T00:54:43;12.00;99.90
21244;DHT22;10780;50.942;4.028;2022-11-15T00:57:09;12.10;99.90
21244;DHT22;10780;50.942;4.028;2022-11-15T00:59:34;12.20;99.90
21244;DHT22;10780;50.942;4.028;2022-11-15T01:02:00;12.20;99.90
21244;DHT22;10780;50.942;4.028;2022-11-15T01:04:26;12.10;99.90
21244;DHT22;10780;50.942;4.028;2022-11-15T01:06:52;12.10;99.90
21244;DHT22;10780;50.942;4.028;2022-11-15T01:09:18;12.30;99.90
21244;DHT22;10780;50.942;4.028;2022-11-15T01:11:43;12.40;99.90
21244;DHT22;10780;50.942;4.028;2022-11-15T01:14:09;12.40;99.90
21244;DHT22;10780;50.942;4.028;2022-11-15T01:16:34;12.50;99.90
21244;DHT22;10780;50.942;4.028;2022-11-15T01:19:00;12.40;99.90
21244;DHT22;10780;50.942;4.028;2022-11-15T01:21:25;12.40;99.90
21244;DHT22;10780;50.942;4.028;2022-11-15T01:23:55;12.40;99.90
21244;DHT22;10780;50.942;4.028;2022-11-15T01:26:22;12.30;99.90
21244;DHT22;10780;50.942;4.028;2022-11-15T01:28:48;12.30;99.90
21244;DHT22;10780;50.942;4.028;2022-11-15T01:31:16;12.30;99.90
21244;DHT22;10780;50.942;4.028;2022-11-15T01:33:42;12.40;99.90
21244;DHT22;10780;50.942;4.028;2022-11-15T01:36:11;12.50;99.90
21244;DHT22;10780;50.942;4.028;2022-11-15T01:38:37;12.50;99.90
21244;DHT22;10780;50.942;4.028;2022-11-15T01:41:03;12.50;99.90
21244;DHT22;10780;50.942;4.028;2022-11-15T01:43:33;12.60;99.90
21244;DHT22;10780;50.942;4.028;2022-11-15T01:46:14;12.50;99.90
21244;DHT22;10780;50.942;4.028;2022-11-15T01:48:43;12.40;99.90
21244;DHT22;10780;50.942;4.028;2022-11-15T01:51:11;12.20;99.90
21244;DHT22;10780;50.942;4.028;2022-11-15T01:53:39;12.20;99.90
21244;DHT22;10780;50.942;4.028;2022-11-15T01:56:09;12.20;99.90
21244;DHT22;10780;50.942;4.028;2022-11-15T01:58:36;12.20;99.90
21244;DHT22;10780;50.942;4.028;2022-11-15T02:01:03;12.20;99.90
21244;DHT22;10780;50.942;4.028;2022-11-15T02:03:43;12.30;99.90
21244;DHT22;10780;50.942;4.028;2022-11-15T02:06:10;12.50;99.90
21244;DHT22;10780;50.942;4.028;2022-11-15T02:08:35;12.50;99.90
21244;DHT22;10780;50.942;4.028;2022-11-15T02:11:01;12.40;99.90
21244;DHT22;10780;50.942;4.028;2022-11-15T02:13:29;12.40;99.90
21244;DHT22;10780;50.942;4.028;2022-11-15T02:18:39;12.30;99.90
21244;DHT22;10780;50.942;4.028;2022-11-15T02:23:58;12.20;99.90
21244;DHT22;10780;50.942;4.028;2022-11-15T02:29:11;12.10;99.90
21244;DHT22;10780;50.942;4.028;2022-11-15T02:31:53;12.20;99.90
21244;DHT22;10780;50.942;4.028;2022-11-15T02:39:51;11.90;99.90
21244;DHT22;10780;50.942;4.028;2022-11-15T02:42:28;12.00;99.90
21244;DHT22;10780;50.942;4.028;2022-11-15T02:45:21;11.90;99.90
21244;DHT22;10780;50.942;4.028;2022-11-15T02:47:50;12.10;99.90
21244;DHT22;10780;50.942;4.028;2022-11-15T02:50:19;12.10;99.90
21244;DHT22;10780;50.942;4.028;2022-11-15T02:52:47;12.10;99.90
21244;DHT22;10780;50.942;4.028;2022-11-15T02:55:28;12.00;99.90
21244;DHT22;10780;50.942;4.028;2022-11-15T03:00:38;12.00;99.90
21244;DHT22;10780;50.942;4.028;2022-11-15T03:06:29;12.00;99.90
21244;DHT22;10780;50.942;4.028;2022-11-15T03:11:23;11.80;99.90
21244;DHT22;10780;50.942;4.028;2022-11-15T03:19:13;11.90;99.90
21244;DHT22;10780;50.942;4.028;2022-11-15T03:21:40;12.00;99.90
21244;DHT22;10780;50.942;4.028;2022-11-15T03:24:08;11.90;99.90
21244;DHT22;10780;50.942;4.028;2022-11-15T03:26:35;11.90;99.90
21244;DHT22;10780;50.942;4.028;2022-11-15T03:32:10;11.90;99.90
21244;DHT22;10780;50.942;4.028;2022-11-15T03:34:55;11.90;99.90
21244;DHT22;10780;50.942;4.028;2022-11-15T03:37:25;11.80;99.90
21244;DHT22;10780;50.942;4.028;2022-11-15T03:39:52;11.80;99.90
21244;DHT22;10780;50.942;4.028;2022-11-15T03:42:36;11.80;99.90
21244;DHT22;10780;50.942;4.028;2022-11-15T03:45:17;11.80;99.90
21244;DHT22;10780;50.942;4.028;2022-11-15T03:47:51;11.80;99.90
21244;DHT22;10780;50.942;4.028;2022-11-15T03:50:20;11.60;99.90
21244;DHT22;10780;50.942;4.028;2022-11-15T03:52:47;11.60;99.90
21244;DHT22;10780;50.942;4.028;2022-11-15T03:55:17;11.50;99.90
21244;DHT22;10780;50.942;4.028;2022-11-15T03:57:43;11.50;99.90
21244;DHT22;10780;50.942;4.028;2022-11-15T04:00:09;11.60;99.90
21244;DHT22;10780;50.942;4.028;2022-11-15T04:02:35;11.70;99.90
21244;DHT22;10780;50.942;4.028;2022-11-15T04:05:01;11.70;99.90
21244;DHT22;10780;50.942;4.028;2022-11-15T04:07:26;11.70;99.90
21244;DHT22;10780;50.942;4.028;2022-11-15T04:09:52;11.60;99.90
21244;DHT22;10780;50.942;4.028;2022-11-15T04:12:32;11.60;99.90
21244;DHT22;10780;50.942;4.028;2022-11-15T04:15:03;11.50;99.90
21244;DHT22;10780;50.942;4.028;2022-11-15T04:17:32;11.40;99.90
21244;DHT22;10780;50.942;4.028;2022-11-15T04:19:58;11.40;99.90
21244;DHT22;10780;50.942;4.028;2022-11-15T04:22:42;11.40;99.90
21244;DHT22;10780;50.942;4.028;2022-11-15T04:25:28;11.40;99.90
21244;DHT22;10780;50.942;4.028;2022-11-15T04:27:54;11.30;99.90
21244;DHT22;10780;50.942;4.028;2022-11-15T04:30:19;11.20;99.90
21244;DHT22;10780;50.942;4.028;2022-11-15T04:32:45;11.00;99.90
21244;DHT22;10780;50.942;4.028;2022-11-15T04:35:11;11.10;99.90
21244;DHT22;10780;50.942;4.028;2022-11-15T04:37:37;11.00;99.90
21244;DHT22;10780;50.942;4.028;2022-11-15T04:40:02;11.00;99.90
21244;DHT22;10780;50.942;4.028;2022-11-15T04:42:28;10.90;99.90
21244;DHT22;10780;50.942;4.028;2022-11-15T04:44:54;10.90;99.90
21244;DHT22;10780;50.942;4.028;2022-11-15T04:47:19;10.80;99.90
21244;DHT22;10780;50.942;4.028;2022-11-15T04:49:45;10.90;99.90
21244;DHT22;10780;50.942;4.028;2022-11-15T04:52:10;10.90;99.90
21244;DHT22;10780;50.942;4.028;2022-11-15T04:54:36;11.00;99.90
21244;DHT22;10780;50.942;4.028;2022-11-15T04:57:02;11.00;99.90
21244;DHT22;10780;50.942;4.028;2022-11-15T04:59:27;11.00;99.90
21244;DHT22;10780;50.942;4.028;2022-11-15T05:01:53;10.90;99.90
21244;DHT22;10780;50.942;4.028;2022-11-15T05:04:18;10.90;99.90
21244;DHT22;10780;50.942;4.028;2022-11-15T05:06:45;10.90;99.90
21244;DHT22;10780;50.942;4.028;2022-11-15T05:09:11;10.90;99.90
21244;DHT22;10780;50.942;4.028;2022-11-15T05:11:38;10.90;99.90
21244;DHT22;10780;50.942;4.028;2022-11-15T05:14:04;10.80;99.90
21244;DHT22;10780;50.942;4.028;2022-11-15T05:16:29;10.80;99.90
21244;DHT22;10780;50.942;4.028;2022-11-15T05:18:55;10.70;99.90
21244;DHT22;10780;50.942;4.028;2022-11-15T05:21:21;10.50;99.90
21244;DHT22;10780;50.942;4.028;2022-11-15T05:23:47;10.40;99.90
21244;DHT22;10780;50.942;4.028;2022-11-15T05:26:13;10.30;99.90
21244;DHT22;10780;50.942;4.028;2022-11-15T05:28:40;10.20;99.90
21244;DHT22;10780;50.942;4.028;2022-11-15T05:31:11;10.20;99.90
21244;DHT22;10780;50.942;4.028;2022-11-15T05:33:41;10.30;99.90
21244;DHT22;10780;50.942;4.028;2022-11-15T05:38:56;10.60;99.90
21244;DHT22;10780;50.942;4.028;2022-11-15T05:41:30;10.60;99.90
21244;DHT22;10780;50.942;4.028;2022-11-15T05:43:58;10.70;99.90
21244;DHT22;10780;50.942;4.028;2022-11-15T05:46:25;10.80;99.90
21244;DHT22;10780;50.942;4.028;2022-11-15T05:48:53;10.90;99.90
21244;DHT22;10780;50.942;4.028;2022-11-15T05:51:19;11.00;99.90
21244;DHT22;10780;50.942;4.028;2022-11-15T05:53:47;10.90;99.90
21244;DHT22;10780;50.942;4.028;2022-11-15T05:56:14;10.90;99.90
21244;DHT22;10780;50.942;4.028;2022-11-15T05:58:40;10.80;99.90
21244;DHT22;10780;50.942;4.028;2022-11-15T06:01:06;10.80;99.90
21244;DHT22;10780;50.942;4.028;2022-11-15T06:03:32;10.90;99.90
21244;DHT22;10780;50.942;4.028;2022-11-15T06:05:57;11.10;99.90
21244;DHT22;10780;50.942;4.028;2022-11-15T06:08:23;11.00;99.90
21244;DHT22;10780;50.942;4.028;2022-11-15T06:10:48;10.90;99.90
21244;DHT22;10780;50.942;4.028;2022-11-15T06:13:14;10.70;99.90
21244;DHT22;10780;50.942;4.028;2022-11-15T06:15:39;10.70;99.90
21244;DHT22;10780;50.942;4.028;2022-11-15T06:18:05;10.60;99.90
21244;DHT22;10780;50.942;4.028;2022-11-15T06:20:31;10.50;99.90
21244;DHT22;10780;50.942;4.028;2022-11-15T06:23:01;10.40;99.90
21244;DHT22;10780;50.942;4.028;2022-11-15T06:25:27;10.20;99.90
21244;DHT22;10780;50.942;4.028;2022-11-15T06:27:55;10.10;99.90
21244;DHT22;10780;50.942;4.028;2022-11-15T06:30:22;10.10;99.90
21244;DHT22;10780;50.942;4.028;2022-11-15T06:32:48;10.10;99.90
21244;DHT22;10780;50.942;4.028;2022-11-15T06:35:14;10.00;99.90
21244;DHT22;10780;50.942;4.028;2022-11-15T06:37:40;9.90;99.90
21244;DHT22;10780;50.942;4.028;2022-11-15T06:40:07;9.80;99.90
21244;DHT22;10780;50.942;4.028;2022-11-15T06:42:33;9.80;99.90
21244;DHT22;10780;50.942;4.028;2022-11-15T06:44:59;9.80;99.90
21244;DHT22;10780;50.942;4.028;2022-11-15T06:47:25;9.80;99.90
21244;DHT22;10780;50.942;4.028;2022-11-15T06:49:50;9.80;99.90
21244;DHT22;10780;50.942;4.028;2022-11-15T06:52:16;9.80;99.90
21244;DHT22;10780;50.942;4.028;2022-11-15T06:54:43;9.80;99.90
21244;DHT22;10780;50.942;4.028;2022-11-15T06:57:09;9.80;99.90
21244;DHT22;10780;50.942;4.028;2022-11-15T06:59:35;9.80;99.90
21244;DHT22;10780;50.942;4.028;2022-11-15T07:02:01;9.80;99.90
21244;DHT22;10780;50.942;4.028;2022-11-15T07:04:27;9.80;99.90
21244;DHT22;10780;50.942;4.028;2022-11-15T07:06:52;9.70;99.90
21244;DHT22;10780;50.942;4.028;2022-11-15T07:09:18;9.80;99.90
21244;DHT22;10780;50.942;4.028;2022-11-15T07:11:43;9.70;99.90
21244;DHT22;10780;50.942;4.028;2022-11-15T07:14:09;9.80;99.90
21244;DHT22;10780;50.942;4.028;2022-11-15T07:16:36;9.80;99.90
21244;DHT22;10780;50.942;4.028;2022-11-15T07:19:02;9.90;99.90
21244;DHT22;10780;50.942;4.028;2022-11-15T07:21:29;9.90;99.90
21244;DHT22;10780;50.942;4.028;2022-11-15T07:23:56;9.90;99.90
21244;DHT22;10780;50.942;4.028;2022-11-15T07:26:23;9.80;99.90
21244;DHT22;10780;50.942;4.028;2022-11-15T07:28:49;9.90;99.90
21244;DHT22;10780;50.942;4.028;2022-11-15T07:31:15;9.90;99.90
21244;DHT22;10780;50.942;4.028;2022-11-15T07:33:43;9.90;99.90
21244;DHT22;10780;50.942;4.028;2022-11-15T07:36:13;9.90;99.90
21244;DHT22;10780;50.942;4.028;2022-11-15T07:38:39;10.10;99.90
21244;DHT22;10780;50.942;4.028;2022-11-15T07:41:06;10.10;99.90
21244;DHT22;10780;50.942;4.028;2022-11-15T07:43:33;10.00;99.90
21244;DHT22;10780;50.942;4.028;2022-11-15T07:46:07;10.00;99.90
21244;DHT22;10780;50.942;4.028;2022-11-15T07:48:39;10.00;99.90
21244;DHT22;10780;50.942;4.028;2022-11-15T07:51:12;10.10;99.90
21244;DHT22;10780;50.942;4.028;2022-11-15T07:53:38;10.10;99.90
21244;DHT22;10780;50.942;4.028;2022-11-15T07:56:06;10.10;99.90
21244;DHT22;10780;50.942;4.028;2022-11-15T07:58:32;10.10;99.90
21244;DHT22;10780;50.942;4.028;2022-11-15T08:00:58;10.20;99.90
21244;DHT22;10780;50.942;4.028;2022-11-15T08:03:27;10.20;99.90
21244;DHT22;10780;50.942;4.028;2022-11-15T08:05:53;10.40;99.90
21244;DHT22;10780;50.942;4.028;2022-11-15T08:08:18;10.50;99.90
21244;DHT22;10780;50.942;4.028;2022-11-15T08:10:44;10.50;99.90
21244;DHT22;10780;50.942;4.028;2022-11-15T08:13:13;10.70;99.90
21244;DHT22;10780;50.942;4.028;2022-11-15T08:15:45;10.80;99.90
21244;DHT22;10780;50.942;4.028;2022-11-15T08:18:15;10.80;99.90
21244;DHT22;10780;50.942;4.028;2022-11-15T08:20:44;10.90;99.90
21244;DHT22;10780;50.942;4.028;2022-11-15T08:23:14;10.90;99.90
21244;DHT22;10780;50.942;4.028;2022-11-15T08:25:40;10.90;99.90
21244;DHT22;10780;50.942;4.028;2022-11-15T08:28:07;10.90;99.90
21244;DHT22;10780;50.942;4.028;2022-11-15T08:30:40;11.00;99.90
21244;DHT22;10780;50.942;4.028;2022-11-15T08:33:11;11.00;99.90
21244;DHT22;10780;50.942;4.028;2022-11-15T08:35:37;11.10;99.90
21244;DHT22;10780;50.942;4.028;2022-11-15T08:38:05;11.10;99.90
21244;DHT22;10780;50.942;4.028;2022-11-15T08:40:31;11.20;99.90
21244;DHT22;10780;50.942;4.028;2022-11-15T08:42:57;11.20;99.90
21244;DHT22;10780;50.942;4.028;2022-11-15T08:45:24;11.30;99.90
21244;DHT22;10780;50.942;4.028;2022-11-15T08:47:49;11.40;99.90
21244;DHT22;10780;50.942;4.028;2022-11-15T08:50:18;11.40;99.90
21244;DHT22;10780;50.942;4.028;2022-11-15T08:52:44;11.60;99.90
21244;DHT22;10780;50.942;4.028;2022-11-15T08:55:10;11.80;99.90
21244;DHT22;10780;50.942;4.028;2022-11-15T08:57:36;11.90;99.90
21244;DHT22;10780;50.942;4.028;2022-11-15T09:00:03;12.00;99.90
21244;DHT22;10780;50.942;4.028;2022-11-15T09:02:29;12.20;99.90
21244;DHT22;10780;50.942;4.028;2022-11-15T09:04:55;12.30;99.90
21244;DHT22;10780;50.942;4.028;2022-11-15T09:07:20;12.40;99.90
21244;DHT22;10780;50.942;4.028;2022-11-15T09:09:46;12.50;99.90
21244;DHT22;10780;50.942;4.028;2022-11-15T09:12:12;12.70;99.90
21244;DHT22;10780;50.942;4.028;2022-11-15T09:14:38;13.00;99.90
21244;DHT22;10780;50.942;4.028;2022-11-15T09:17:07;13.00;99.90
21244;DHT22;10780;50.942;4.028;2022-11-15T09:19:34;12.80;99.90
21244;DHT22;10780;50.942;4.028;2022-11-15T09:22:00;12.70;99.90
21244;DHT22;10780;50.942;4.028;2022-11-15T09:24:26;12.70;99.90
21244;DHT22;10780;50.942;4.028;2022-11-15T09:26:52;12.60;99.90
21244;DHT22;10780;50.942;4.028;2022-11-15T09:29:18;12.60;99.90
21244;DHT22;10780;50.942;4.028;2022-11-15T09:31:44;12.80;99.90
21244;DHT22;10780;50.942;4.028;2022-11-15T09:34:10;12.60;99.90
21244;DHT22;10780;50.942;4.028;2022-11-15T09:36:36;12.70;99.90
21244;DHT22;10780;50.942;4.028;2022-11-15T09:39:02;12.70;99.90
21244;DHT22;10780;50.942;4.028;2022-11-15T09:47:13;12.60;99.90
21244;DHT22;10780;50.942;4.028;2022-11-15T09:49:44;12.60;99.90
21244;DHT22;10780;50.942;4.028;2022-11-15T09:52:10;12.50;99.90
21244;DHT22;10780;50.942;4.028;2022-11-15T09:54:38;12.60;99.90
21244;DHT22;10780;50.942;4.028;2022-11-15T10:05:32;12.80;99.90
21244;DHT22;10780;50.942;4.028;2022-11-15T10:08:51;13.00;99.90
21244;DHT22;10780;50.942;4.028;2022-11-15T10:10:56;13.00;99.90
21244;DHT22;10780;50.942;4.028;2022-11-15T10:13:22;13.10;99.90
21244;DHT22;10780;50.942;4.028;2022-11-15T10:15:50;13.10;99.90
21244;DHT22;10780;50.942;4.028;2022-11-15T10:21:32;13.30;99.90
21244;DHT22;10780;50.942;4.028;2022-11-15T10:23:36;13.30;99.90
21244;DHT22;10780;50.942;4.028;2022-11-15T10:26:09;13.20;99.90
21244;DHT22;10780;50.942;4.028;2022-11-15T10:28:36;13.30;99.90
21244;DHT22;10780;50.942;4.028;2022-11-15T10:31:03;13.40;99.90
21244;DHT22;10780;50.942;4.028;2022-11-15T10:33:33;13.60;99.90
21244;DHT22;10780;50.942;4.028;2022-11-15T10:38:55;14.00;99.90
21244;DHT22;10780;50.942;4.028;2022-11-15T10:41:32;14.30;99.90
21244;DHT22;10780;50.942;4.028;2022-11-15T10:44:20;14.40;99.90
21244;DHT22;10780;50.942;4.028;2022-11-15T10:47:05;14.50;99.90
21244;DHT22;10780;50.942;4.028;2022-11-15T10:49:33;14.50;99.90
21244;DHT22;10780;50.942;4.028;2022-11-15T10:52:14;14.50;99.90
21244;DHT22;10780;50.942;4.028;2022-11-15T10:57:21;14.50;99.90
21244;DHT22;10780;50.942;4.028;2022-11-15T10:59:51;14.40;99.90
21244;DHT22;10780;50.942;4.028;2022-11-15T11:02:28;14.40;99.90
21244;DHT22;10780;50.942;4.028;2022-11-15T11:04:54;14.30;99.90
21244;DHT22;10780;50.942;4.028;2022-11-15T11:07:23;14.40;99.90
21244;DHT22;10780;50.942;4.028;2022-11-15T11:10:02;14.40;99.90
21244;DHT22;10780;50.942;4.028;2022-11-15T11:12:33;14.70;99.90
21244;DHT22;10780;50.942;4.028;2022-11-15T11:15:01;14.70;99.90
21244;DHT22;10780;50.942;4.028;2022-11-15T11:18:05;14.90;99.90
21244;DHT22;10780;50.942;4.028;2022-11-15T11:20:48;15.00;99.90
21244;DHT22;10780;50.942;4.028;2022-11-15T11:48:13;15.40;99.90
21244;DHT22;10780;50.942;4.028;2022-11-15T11:50:41;15.60;99.90
21244;DHT22;10780;50.942;4.028;2022-11-15T11:53:37;15.60;99.90
21244;DHT22;10780;50.942;4.028;2022-11-15T11:56:28;15.40;99.90
21244;DHT22;10780;50.942;4.028;2022-11-15T11:59:41;15.20;99.90
21244;DHT22;10780;50.942;4.028;2022-11-15T12:01:48;14.90;99.90
21244;DHT22;10780;50.942;4.028;2022-11-15T12:04:16;14.80;99.90
21244;DHT22;10780;50.942;4.028;2022-11-15T12:12:23;15.20;99.90
21244;DHT22;10780;50.942;4.028;2022-11-15T12:14:55;15.10;99.90
21244;DHT22;10780;50.942;4.028;2022-11-15T12:17:26;15.30;99.90
21244;DHT22;10780;50.942;4.028;2022-11-15T12:19:58;15.50;99.90
21244;DHT22;10780;50.942;4.028;2022-11-15T12:22:38;15.50;99.90
21244;DHT22;10780;50.942;4.028;2022-11-15T12:25:14;15.30;99.90
21244;DHT22;10780;50.942;4.028;2022-11-15T12:27:50;15.20;99.90
21244;DHT22;10780;50.942;4.028;2022-11-15T12:30:21;15.10;99.90
21244;DHT22;10780;50.942;4.028;2022-11-15T12:32:58;15.20;99.90
21244;DHT22;10780;50.942;4.028;2022-11-15T12:35:37;15.30;99.90
21244;DHT22;10780;50.942;4.028;2022-11-15T12:41:19;15.00;99.90
21244;DHT22;10780;50.942;4.028;2022-11-15T12:43:59;15.10;99.90
21244;DHT22;10780;50.942;4.028;2022-11-15T12:52:05;15.30;99.90
21244;DHT22;10780;50.942;4.028;2022-11-15T12:55:01;15.50;99.90
21244;DHT22;10780;50.942;4.028;2022-11-15T12:58:19;15.40;99.90
21244;DHT22;10780;50.942;4.028;2022-11-15T13:00:59;15.40;99.90
21244;DHT22;10780;50.942;4.028;2022-11-15T13:04:07;15.50;99.90
21244;DHT22;10780;50.942;4.028;2022-11-15T13:09:59;15.00;99.90
21244;DHT22;10780;50.942;4.028;2022-11-15T13:17:56;15.10;99.90
21244;DHT22;10780;50.942;4.028;2022-11-15T13:20:35;15.20;99.90
21244;DHT22;10780;50.942;4.028;2022-11-15T13:23:27;15.30;99.90
21244;DHT22;10780;50.942;4.028;2022-11-15T13:26:13;15.20;99.90
21244;DHT22;10780;50.942;4.028;2022-11-15T13:28:45;15.10;99.90
21244;DHT22;10780;50.942;4.028;2022-11-15T13:31:29;15.10;99.90
21244;DHT22;10780;50.942;4.028;2022-11-15T13:36:56;15.00;99.90
21244;DHT22;10780;50.942;4.028;2022-11-15T13:39:35;15.00;99.90
21244;DHT22;10780;50.942;4.028;2022-11-15T13:42:17;14.90;99.90
21244;DHT22;10780;50.942;4.028;2022-11-15T13:44:58;14.90;99.90
21244;DHT22;10780;50.942;4.028;2022-11-15T13:47:28;15.00;99.90
21244;DHT22;10780;50.942;4.028;2022-11-15T13:49:57;15.00;99.90
21244;DHT22;10780;50.942;4.028;2022-11-15T13:52:27;15.00;99.90
21244;DHT22;10780;50.942;4.028;2022-11-15T13:54:58;15.00;99.90
21244;DHT22;10780;50.942;4.028;2022-11-15T13:57:27;15.00;99.90
21244;DHT22;10780;50.942;4.028;2022-11-15T13:59:54;15.00;99.90
21244;DHT22;10780;50.942;4.028;2022-11-15T14:02:31;15.00;99.90
21244;DHT22;10780;50.942;4.028;2022-11-15T14:05:16;14.90;99.90
21244;DHT22;10780;50.942;4.028;2022-11-15T14:08:24;14.90;99.90
21244;DHT22;10780;50.942;4.028;2022-11-15T14:11:17;14.90;99.90
21244;DHT22;10780;50.942;4.028;2022-11-15T14:14:14;14.80;99.90
21244;DHT22;10780;50.942;4.028;2022-11-15T14:16:54;14.80;99.90
21244;DHT22;10780;50.942;4.028;2022-11-15T14:19:35;14.80;99.90
21244;DHT22;10780;50.942;4.028;2022-11-15T14:22:22;14.70;99.90
21244;DHT22;10780;50.942;4.028;2022-11-15T14:25:23;14.60;99.90
21244;DHT22;10780;50.942;4.028;2022-11-15T14:30:43;14.50;99.90
21244;DHT22;10780;50.942;4.028;2022-11-15T14:33:32;14.60;99.90
21244;DHT22;10780;50.942;4.028;2022-11-15T14:36:24;14.60;99.90
21244;DHT22;10780;50.942;4.028;2022-11-15T14:39:27;14.50;99.90
21244;DHT22;10780;50.942;4.028;2022-11-15T14:42:09;14.50;99.90
21244;DHT22;10780;50.942;4.028;2022-11-15T14:44:45;14.50;99.90
21244;DHT22;10780;50.942;4.028;2022-11-15T14:47:24;14.30;99.90
21244;DHT22;10780;50.942;4.028;2022-11-15T14:50:01;14.30;99.90
21244;DHT22;10780;50.942;4.028;2022-11-15T14:53:29;14.30;99.90
21244;DHT22;10780;50.942;4.028;2022-11-15T14:56:04;14.30;99.90
21244;DHT22;10780;50.942;4.028;2022-11-15T14:58:52;14.10;99.90
21244;DHT22;10780;50.942;4.028;2022-11-15T15:01:25;14.00;99.90
21244;DHT22;10780;50.942;4.028;2022-11-15T15:03:56;13.90;99.90
21244;DHT22;10780;50.942;4.028;2022-11-15T15:06:43;13.80;99.90
21244;DHT22;10780;50.942;4.028;2022-11-15T15:09:08;13.80;99.90
21244;DHT22;10780;50.942;4.028;2022-11-15T15:11:34;13.80;99.90
21244;DHT22;10780;50.942;4.028;2022-11-15T15:14:00;13.80;99.90
21244;DHT22;10780;50.942;4.028;2022-11-15T15:16:28;13.70;99.90
21244;DHT22;10780;50.942;4.028;2022-11-15T15:18:54;13.60;99.90
21244;DHT22;10780;50.942;4.028;2022-11-15T15:21:20;13.70;99.90
21244;DHT22;10780;50.942;4.028;2022-11-15T15:23:47;13.60;99.90
21244;DHT22;10780;50.942;4.028;2022-11-15T15:26:12;13.50;99.90
21244;DHT22;10780;50.942;4.028;2022-11-15T15:28:38;13.60;99.90
21244;DHT22;10780;50.942;4.028;2022-11-15T15:31:04;13.60;99.90
21244;DHT22;10780;50.942;4.028;2022-11-15T15:33:30;13.50;99.90
21244;DHT22;10780;50.942;4.028;2022-11-15T15:35:56;13.50;99.90
21244;DHT22;10780;50.942;4.028;2022-11-15T15:38:22;13.50;99.90
21244;DHT22;10780;50.942;4.028;2022-11-15T15:40:48;13.50;99.90
21244;DHT22;10780;50.942;4.028;2022-11-15T15:43:13;13.50;99.90
21244;DHT22;10780;50.942;4.028;2022-11-15T15:45:40;13.50;99.90
21244;DHT22;10780;50.942;4.028;2022-11-15T15:48:14;13.40;99.90
21244;DHT22;10780;50.942;4.028;2022-11-15T15:50:40;13.50;99.90
21244;DHT22;10780;50.942;4.028;2022-11-15T15:53:09;13.40;99.90
21244;DHT22;10780;50.942;4.028;2022-11-15T15:55:36;13.30;99.90
21244;DHT22;10780;50.942;4.028;2022-11-15T15:58:02;13.20;99.90
21244;DHT22;10780;50.942;4.028;2022-11-15T16:00:28;13.20;99.90
21244;DHT22;10780;50.942;4.028;2022-11-15T16:02:54;13.20;99.90
21244;DHT22;10780;50.942;4.028;2022-11-15T16:05:20;13.20;99.90
21244;DHT22;10780;50.942;4.028;2022-11-15T16:07:46;13.20;99.90
21244;DHT22;10780;50.942;4.028;2022-11-15T16:10:22;13.30;99.90
21244;DHT22;10780;50.942;4.028;2022-11-15T16:12:48;13.40;99.90
21244;DHT22;10780;50.942;4.028;2022-11-15T16:15:14;13.40;99.90
21244;DHT22;10780;50.942;4.028;2022-11-15T16:17:47;13.30;99.90
21244;DHT22;10780;50.942;4.028;2022-11-15T16:20:33;13.30;99.90
21244;DHT22;10780;50.942;4.028;2022-11-15T16:22:59;13.40;99.90
21244;DHT22;10780;50.942;4.028;2022-11-15T16:25:25;13.30;99.90
21244;DHT22;10780;50.942;4.028;2022-11-15T16:27:51;13.20;99.90
21244;DHT22;10780;50.942;4.028;2022-11-15T16:30:20;13.20;99.90
21244;DHT22;10780;50.942;4.028;2022-11-15T16:32:46;13.20;99.90
21244;DHT22;10780;50.942;4.028;2022-11-15T16:35:13;13.20;99.90
21244;DHT22;10780;50.942;4.028;2022-11-15T16:37:39;13.30;99.90
21244;DHT22;10780;50.942;4.028;2022-11-15T16:40:30;13.40;99.90
21244;DHT22;10780;50.942;4.028;2022-11-15T16:42:57;13.50;99.90
21244;DHT22;10780;50.942;4.028;2022-11-15T16:45:24;13.50;99.90
21244;DHT22;10780;50.942;4.028;2022-11-15T16:47:50;13.50;99.90
21244;DHT22;10780;50.942;4.028;2022-11-15T16:50:26;13.40;99.90
21244;DHT22;10780;50.942;4.028;2022-11-15T16:52:54;13.40;99.90
21244;DHT22;10780;50.942;4.028;2022-11-15T16:55:22;13.30;99.90
21244;DHT22;10780;50.942;4.028;2022-11-15T16:57:48;13.20;99.90
21244;DHT22;10780;50.942;4.028;2022-11-15T17:00:15;13.40;99.90
21244;DHT22;10780;50.942;4.028;2022-11-15T17:02:46;13.50;99.90
21244;DHT22;10780;50.942;4.028;2022-11-15T17:05:13;13.50;99.90
21244;DHT22;10780;50.942;4.028;2022-11-15T17:07:39;13.70;99.90
21244;DHT22;10780;50.942;4.028;2022-11-15T17:10:06;13.60;99.90
21244;DHT22;10780;50.942;4.028;2022-11-15T17:12:33;13.70;99.90
21244;DHT22;10780;50.942;4.028;2022-11-15T17:14:59;13.60;99.90
21244;DHT22;10780;50.942;4.028;2022-11-15T17:17:24;13.60;99.90
21244;DHT22;10780;50.942;4.028;2022-11-15T17:19:52;13.50;99.90
21244;DHT22;10780;50.942;4.028;2022-11-15T17:22:18;13.50;99.90
21244;DHT22;10780;50.942;4.028;2022-11-15T17:24:44;13.40;99.90
21244;DHT22;10780;50.942;4.028;2022-11-15T17:27:09;13.40;99.90
21244;DHT22;10780;50.942;4.028;2022-11-15T17:29:35;13.50;99.90
21244;DHT22;10780;50.942;4.028;2022-11-15T17:32:00;13.50;99.90
21244;DHT22;10780;50.942;4.028;2022-11-15T17:34:26;13.50;99.90
21244;DHT22;10780;50.942;4.028;2022-11-15T17:36:52;13.50;99.90
21244;DHT22;10780;50.942;4.028;2022-11-15T17:39:17;13.50;99.90
21244;DHT22;10780;50.942;4.028;2022-11-15T17:41:45;13.50;99.90